sensor_id;sensor_type;location;lat;lon;timestamp;P1;durP1;ratioP1;P2;durP2;ratioP2
17398;SDS011;8817;48.170;8.592;2022-08-05T00:02:05;7.45;;;6.57;;
17398;SDS011;8817;48.170;8.592;2022-08-05T00:04:32;7.22;;;6.82;;
17398;SDS011;8817;48.170;8.592;2022-08-05T00:06:58;7.30;;;6.70;;
17398;SDS011;8817;48.170;8.592;2022-08-05T00:09:25;7.38;;;6.78;;
17398;SDS011;8817;48.170;8.592;2022-08-05T00:11:52;7.45;;;6.95;;
17398;SDS011;8817;48.170;8.592;2022-08-05T00:14:19;7.10;;;6.70;;
17398;SDS011;8817;48.170;8.592;2022-08-05T00:16:48;7.22;;;6.50;;
17398;SDS011;8817;48.170;8.592;2022-08-05T00:19:15;7.13;;;6.72;;
17398;SDS011;8817;48.170;8.592;2022-08-05T00:21:42;7.20;;;6.70;;
17398;SDS011;8817;48.170;8.592;2022-08-05T00:24:09;7.57;;;6.88;;
17398;SDS011;8817;48.170;8.592;2022-08-05T00:26:36;7.10;;;6.70;;
17398;SDS011;8817;48.170;8.592;2022-08-05T00:29:03;7.28;;;6.70;;
17398;SDS011;8817;48.170;8.592;2022-08-05T00:31:30;6.82;;;6.43;;
17398;SDS011;8817;48.170;8.592;2022-08-05T00:33:58;6.93;;;6.47;;
17398;SDS011;8817;48.170;8.592;2022-08-05T00:36:25;7.47;;;6.97;;
17398;SDS011;8817;48.170;8.592;2022-08-05T00:38:52;6.85;;;6.38;;
17398;SDS011;8817;48.170;8.592;2022-08-05T00:41:26;7.30;;;6.75;;
17398;SDS011;8817;48.170;8.592;2022-08-05T00:43:53;6.82;;;6.43;;
17398;SDS011;8817;48.170;8.592;2022-08-05T00:46:21;7.03;;;6.53;;
17398;SDS011;8817;48.170;8.592;2022-08-05T00:48:48;7.25;;;6.60;;
17398;SDS011;8817;48.170;8.592;2022-08-05T00:51:17;6.95;;;6.40;;
17398;SDS011;8817;48.170;8.592;2022-08-05T00:53:44;7.15;;;6.75;;
17398;SDS011;8817;48.170;8.592;2022-08-05T00:56:11;7.10;;;6.60;;
17398;SDS011;8817;48.170;8.592;2022-08-05T00:58:40;7.50;;;7.00;;
17398;SDS011;8817;48.170;8.592;2022-08-05T01:01:07;7.20;;;6.70;;
17398;SDS011;8817;48.170;8.592;2022-08-05T01:03:35;7.25;;;6.75;;
17398;SDS011;8817;48.170;8.592;2022-08-05T01:06:03;7.35;;;6.85;;
17398;SDS011;8817;48.170;8.592;2022-08-05T01:08:31;7.45;;;6.85;;
17398;SDS011;8817;48.170;8.592;2022-08-05T01:10:59;7.80;;;7.20;;
17398;SDS011;8817;48.170;8.592;2022-08-05T01:13:32;8.10;;;7.30;;
17398;SDS011;8817;48.170;8.592;2022-08-05T01:16:04;7.78;;;7.25;;
17398;SDS011;8817;48.170;8.592;2022-08-05T01:18:42;7.45;;;6.95;;
17398;SDS011;8817;48.170;8.592;2022-08-05T01:21:15;8.75;;;7.20;;
17398;SDS011;8817;48.170;8.592;2022-08-05T01:23:56;7.32;;;6.82;;
17398;SDS011;8817;48.170;8.592;2022-08-05T01:26:32;7.47;;;6.93;;
17398;SDS011;8817;48.170;8.592;2022-08-05T01:29:12;7.72;;;7.03;;
17398;SDS011;8817;48.170;8.592;2022-08-05T01:31:44;7.90;;;7.10;;
17398;SDS011;8817;48.170;8.592;2022-08-05T01:34:14;7.32;;;6.82;;
17398;SDS011;8817;48.170;8.592;2022-08-05T01:36:45;7.55;;;7.05;;
17398;SDS011;8817;48.170;8.592;2022-08-05T01:39:15;8.82;;;7.10;;
17398;SDS011;8817;48.170;8.592;2022-08-05T01:41:44;7.63;;;7.13;;
17398;SDS011;8817;48.170;8.592;2022-08-05T01:44:14;7.60;;;7.10;;
17398;SDS011;8817;48.170;8.592;2022-08-05T01:46:43;7.57;;;7.07;;
17398;SDS011;8817;48.170;8.592;2022-08-05T01:49:11;7.38;;;6.88;;
17398;SDS011;8817;48.170;8.592;2022-08-05T01:51:43;7.28;;;6.82;;
17398;SDS011;8817;48.170;8.592;2022-08-05T01:54:11;7.25;;;6.75;;
17398;SDS011;8817;48.170;8.592;2022-08-05T01:56:41;7.50;;;7.00;;
17398;SDS011;8817;48.170;8.592;2022-08-05T01:59:10;7.80;;;7.15;;
17398;SDS011;8817;48.170;8.592;2022-08-05T02:01:41;7.40;;;6.90;;
17398;SDS011;8817;48.170;8.592;2022-08-05T02:04:11;7.18;;;6.72;;
17398;SDS011;8817;48.170;8.592;2022-08-05T02:06:41;7.60;;;7.10;;
17398;SDS011;8817;48.170;8.592;2022-08-05T02:09:09;7.07;;;6.63;;
17398;SDS011;8817;48.170;8.592;2022-08-05T02:11:39;7.28;;;6.80;;
17398;SDS011;8817;48.170;8.592;2022-08-05T02:14:10;7.50;;;7.00;;
17398;SDS011;8817;48.170;8.592;2022-08-05T02:16:43;7.25;;;6.78;;
17398;SDS011;8817;48.170;8.592;2022-08-05T02:19:19;7.40;;;6.90;;
17398;SDS011;8817;48.170;8.592;2022-08-05T02:21:57;7.25;;;6.75;;
17398;SDS011;8817;48.170;8.592;2022-08-05T02:24:32;7.72;;;6.90;;
17398;SDS011;8817;48.170;8.592;2022-08-05T02:27:03;7.57;;;7.00;;
17398;SDS011;8817;48.170;8.592;2022-08-05T02:29:33;7.40;;;6.90;;
17398;SDS011;8817;48.170;8.592;2022-08-05T02:32:03;7.60;;;7.00;;
17398;SDS011;8817;48.170;8.592;2022-08-05T02:34:34;7.60;;;6.88;;
17398;SDS011;8817;48.170;8.592;2022-08-05T02:37:03;7.30;;;6.80;;
17398;SDS011;8817;48.170;8.592;2022-08-05T02:39:34;7.22;;;6.72;;
17398;SDS011;8817;48.170;8.592;2022-08-05T02:42:03;7.00;;;6.60;;
17398;SDS011;8817;48.170;8.592;2022-08-05T02:44:33;7.00;;;6.55;;
17398;SDS011;8817;48.170;8.592;2022-08-05T02:47:04;6.75;;;6.35;;
17398;SDS011;8817;48.170;8.592;2022-08-05T02:49:34;7.75;;;6.78;;
17398;SDS011;8817;48.170;8.592;2022-08-05T02:52:04;7.47;;;6.85;;
17398;SDS011;8817;48.170;8.592;2022-08-05T02:54:33;6.68;;;6.28;;
17398;SDS011;8817;48.170;8.592;2022-08-05T02:57:01;7.00;;;6.55;;
17398;SDS011;8817;48.170;8.592;2022-08-05T02:59:29;7.18;;;6.75;;
17398;SDS011;8817;48.170;8.592;2022-08-05T03:01:57;7.03;;;6.63;;
17398;SDS011;8817;48.170;8.592;2022-08-05T03:04:27;7.50;;;6.90;;
17398;SDS011;8817;48.170;8.592;2022-08-05T03:06:54;7.03;;;6.55;;
17398;SDS011;8817;48.170;8.592;2022-08-05T03:09:24;6.82;;;6.35;;
17398;SDS011;8817;48.170;8.592;2022-08-05T03:11:51;6.93;;;6.53;;
17398;SDS011;8817;48.170;8.592;2022-08-05T03:14:18;7.20;;;6.70;;
17398;SDS011;8817;48.170;8.592;2022-08-05T03:16:45;6.70;;;6.30;;
17398;SDS011;8817;48.170;8.592;2022-08-05T03:19:12;6.75;;;6.40;;
17398;SDS011;8817;48.170;8.592;2022-08-05T03:21:40;6.63;;;6.22;;
17398;SDS011;8817;48.170;8.592;2022-08-05T03:24:07;6.75;;;6.35;;
17398;SDS011;8817;48.170;8.592;2022-08-05T03:26:35;7.45;;;6.95;;
17398;SDS011;8817;48.170;8.592;2022-08-05T03:29:02;6.75;;;6.35;;
17398;SDS011;8817;48.170;8.592;2022-08-05T03:31:29;6.80;;;6.40;;
17398;SDS011;8817;48.170;8.592;2022-08-05T03:33:57;6.90;;;6.50;;
17398;SDS011;8817;48.170;8.592;2022-08-05T03:36:24;7.30;;;6.80;;
17398;SDS011;8817;48.170;8.592;2022-08-05T03:38:53;7.28;;;6.68;;
17398;SDS011;8817;48.170;8.592;2022-08-05T03:41:20;7.18;;;6.68;;
17398;SDS011;8817;48.170;8.592;2022-08-05T03:43:47;7.43;;;6.82;;
17398;SDS011;8817;48.170;8.592;2022-08-05T03:46:14;7.50;;;7.00;;
17398;SDS011;8817;48.170;8.592;2022-08-05T03:48:41;7.30;;;6.80;;
17398;SDS011;8817;48.170;8.592;2022-08-05T03:51:10;7.50;;;6.90;;
17398;SDS011;8817;48.170;8.592;2022-08-05T03:53:43;7.65;;;6.95;;
17398;SDS011;8817;48.170;8.592;2022-08-05T03:56:20;7.30;;;6.80;;
17398;SDS011;8817;48.170;8.592;2022-08-05T03:58:52;7.90;;;7.30;;
17398;SDS011;8817;48.170;8.592;2022-08-05T04:01:22;7.90;;;7.15;;
17398;SDS011;8817;48.170;8.592;2022-08-05T04:03:51;7.90;;;7.30;;
17398;SDS011;8817;48.170;8.592;2022-08-05T04:06:19;7.68;;;7.18;;
17398;SDS011;8817;48.170;8.592;2022-08-05T04:08:47;7.65;;;7.15;;
17398;SDS011;8817;48.170;8.592;2022-08-05T04:11:15;7.90;;;7.30;;
17398;SDS011;8817;48.170;8.592;2022-08-05T04:13:44;8.30;;;7.60;;
17398;SDS011;8817;48.170;8.592;2022-08-05T04:16:11;8.15;;;7.55;;
17398;SDS011;8817;48.170;8.592;2022-08-05T04:18:38;11.00;;;8.00;;
17398;SDS011;8817;48.170;8.592;2022-08-05T04:21:05;8.68;;;7.95;;
17398;SDS011;8817;48.170;8.592;2022-08-05T04:23:33;8.40;;;7.55;;
17398;SDS011;8817;48.170;8.592;2022-08-05T04:26:01;8.25;;;7.65;;
17398;SDS011;8817;48.170;8.592;2022-08-05T04:28:30;8.13;;;7.55;;
17398;SDS011;8817;48.170;8.592;2022-08-05T04:30:57;8.20;;;7.60;;
17398;SDS011;8817;48.170;8.592;2022-08-05T04:33:25;8.68;;;7.97;;
17398;SDS011;8817;48.170;8.592;2022-08-05T04:35:52;8.20;;;7.60;;
17398;SDS011;8817;48.170;8.592;2022-08-05T04:38:19;8.30;;;7.70;;
17398;SDS011;8817;48.170;8.592;2022-08-05T04:40:46;7.93;;;7.32;;
17398;SDS011;8817;48.170;8.592;2022-08-05T04:43:13;8.75;;;7.88;;
17398;SDS011;8817;48.170;8.592;2022-08-05T04:45:41;7.88;;;7.38;;
17398;SDS011;8817;48.170;8.592;2022-08-05T04:48:09;8.25;;;7.65;;
17398;SDS011;8817;48.170;8.592;2022-08-05T04:50:37;8.13;;;7.53;;
17398;SDS011;8817;48.170;8.592;2022-08-05T04:53:05;8.05;;;7.45;;
17398;SDS011;8817;48.170;8.592;2022-08-05T04:55:32;8.20;;;7.63;;
17398;SDS011;8817;48.170;8.592;2022-08-05T04:57:59;8.05;;;7.40;;
17398;SDS011;8817;48.170;8.592;2022-08-05T05:00:26;8.60;;;7.90;;
17398;SDS011;8817;48.170;8.592;2022-08-05T05:02:54;7.93;;;7.25;;
17398;SDS011;8817;48.170;8.592;2022-08-05T05:05:21;18.60;;;7.78;;
17398;SDS011;8817;48.170;8.592;2022-08-05T05:07:48;8.27;;;7.68;;
17398;SDS011;8817;48.170;8.592;2022-08-05T05:10:15;8.10;;;7.57;;
17398;SDS011;8817;48.170;8.592;2022-08-05T05:12:43;7.88;;;7.38;;
17398;SDS011;8817;48.170;8.592;2022-08-05T05:15:09;7.80;;;7.30;;
17398;SDS011;8817;48.170;8.592;2022-08-05T05:17:37;8.02;;;7.32;;
17398;SDS011;8817;48.170;8.592;2022-08-05T05:20:06;7.97;;;7.22;;
17398;SDS011;8817;48.170;8.592;2022-08-05T05:22:34;7.70;;;7.20;;
17398;SDS011;8817;48.170;8.592;2022-08-05T05:25:02;10.07;;;7.20;;
17398;SDS011;8817;48.170;8.592;2022-08-05T05:27:31;8.10;;;7.40;;
17398;SDS011;8817;48.170;8.592;2022-08-05T05:29:59;7.68;;;7.13;;
17398;SDS011;8817;48.170;8.592;2022-08-05T05:32:26;8.00;;;7.40;;
17398;SDS011;8817;48.170;8.592;2022-08-05T05:34:53;8.38;;;7.68;;
17398;SDS011;8817;48.170;8.592;2022-08-05T05:37:21;8.07;;;7.47;;
17398;SDS011;8817;48.170;8.592;2022-08-05T05:39:48;8.27;;;7.40;;
17398;SDS011;8817;48.170;8.592;2022-08-05T05:42:16;7.93;;;7.35;;
17398;SDS011;8817;48.170;8.592;2022-08-05T05:44:43;7.82;;;7.18;;
17398;SDS011;8817;48.170;8.592;2022-08-05T05:47:09;7.82;;;7.32;;
17398;SDS011;8817;48.170;8.592;2022-08-05T05:49:37;7.82;;;7.30;;
17398;SDS011;8817;48.170;8.592;2022-08-05T05:52:03;7.90;;;7.40;;
17398;SDS011;8817;48.170;8.592;2022-08-05T05:54:32;8.63;;;7.60;;
17398;SDS011;8817;48.170;8.592;2022-08-05T05:56:59;7.95;;;7.43;;
17398;SDS011;8817;48.170;8.592;2022-08-05T05:59:26;9.38;;;7.80;;
17398;SDS011;8817;48.170;8.592;2022-08-05T06:01:53;10.05;;;7.80;;
17398;SDS011;8817;48.170;8.592;2022-08-05T06:04:20;8.45;;;7.75;;
17398;SDS011;8817;48.170;8.592;2022-08-05T06:06:47;7.85;;;7.22;;
17398;SDS011;8817;48.170;8.592;2022-08-05T06:09:14;8.07;;;7.47;;
17398;SDS011;8817;48.170;8.592;2022-08-05T06:11:42;8.35;;;7.65;;
17398;SDS011;8817;48.170;8.592;2022-08-05T06:14:10;10.25;;;7.40;;
17398;SDS011;8817;48.170;8.592;2022-08-05T06:16:37;8.30;;;7.60;;
17398;SDS011;8817;48.170;8.592;2022-08-05T06:19:04;8.18;;;7.38;;
17398;SDS011;8817;48.170;8.592;2022-08-05T06:21:31;8.00;;;7.40;;
17398;SDS011;8817;48.170;8.592;2022-08-05T06:23:58;8.20;;;7.40;;
17398;SDS011;8817;48.170;8.592;2022-08-05T06:26:25;7.45;;;7.05;;
17398;SDS011;8817;48.170;8.592;2022-08-05T06:28:54;8.98;;;7.18;;
17398;SDS011;8817;48.170;8.592;2022-08-05T06:31:21;7.80;;;7.20;;
17398;SDS011;8817;48.170;8.592;2022-08-05T06:33:48;8.32;;;7.53;;
17398;SDS011;8817;48.170;8.592;2022-08-05T06:36:15;9.18;;;7.35;;
17398;SDS011;8817;48.170;8.592;2022-08-05T06:38:42;8.13;;;6.85;;
17398;SDS011;8817;48.170;8.592;2022-08-05T06:41:10;7.60;;;7.10;;
17398;SDS011;8817;48.170;8.592;2022-08-05T06:43:37;8.15;;;6.97;;
17398;SDS011;8817;48.170;8.592;2022-08-05T06:46:05;8.07;;;7.25;;
17398;SDS011;8817;48.170;8.592;2022-08-05T06:48:32;7.78;;;7.07;;
17398;SDS011;8817;48.170;8.592;2022-08-05T06:51:00;7.70;;;7.10;;
17398;SDS011;8817;48.170;8.592;2022-08-05T06:53:29;7.68;;;7.07;;
17398;SDS011;8817;48.170;8.592;2022-08-05T06:55:56;7.43;;;6.93;;
17398;SDS011;8817;48.170;8.592;2022-08-05T06:58:23;7.60;;;7.10;;
17398;SDS011;8817;48.170;8.592;2022-08-05T07:00:51;8.68;;;7.00;;
17398;SDS011;8817;48.170;8.592;2022-08-05T07:03:19;7.40;;;6.90;;
17398;SDS011;8817;48.170;8.592;2022-08-05T07:05:46;6.97;;;6.57;;
17398;SDS011;8817;48.170;8.592;2022-08-05T07:08:13;7.45;;;6.93;;
17398;SDS011;8817;48.170;8.592;2022-08-05T07:10:40;7.20;;;6.80;;
17398;SDS011;8817;48.170;8.592;2022-08-05T07:13:07;7.78;;;7.22;;
17398;SDS011;8817;48.170;8.592;2022-08-05T07:15:52;7.75;;;7.25;;
17398;SDS011;8817;48.170;8.592;2022-08-05T07:18:37;7.82;;;7.32;;
17398;SDS011;8817;48.170;8.592;2022-08-05T07:21:04;7.90;;;7.30;;
17398;SDS011;8817;48.170;8.592;2022-08-05T07:23:31;7.25;;;6.75;;
17398;SDS011;8817;48.170;8.592;2022-08-05T07:25:58;7.72;;;6.93;;
17398;SDS011;8817;48.170;8.592;2022-08-05T07:28:26;7.45;;;6.95;;
17398;SDS011;8817;48.170;8.592;2022-08-05T07:30:53;7.75;;;7.10;;
17398;SDS011;8817;48.170;8.592;2022-08-05T07:33:20;8.07;;;7.38;;
17398;SDS011;8817;48.170;8.592;2022-08-05T07:35:48;7.70;;;7.20;;
17398;SDS011;8817;48.170;8.592;2022-08-05T07:38:15;8.95;;;7.22;;
17398;SDS011;8817;48.170;8.592;2022-08-05T07:40:43;7.60;;;7.20;;
17398;SDS011;8817;48.170;8.592;2022-08-05T07:43:10;7.60;;;7.10;;
17398;SDS011;8817;48.170;8.592;2022-08-05T07:45:38;6.80;;;6.40;;
17398;SDS011;8817;48.170;8.592;2022-08-05T07:48:05;7.28;;;6.88;;
17398;SDS011;8817;48.170;8.592;2022-08-05T07:50:32;6.65;;;6.30;;
17398;SDS011;8817;48.170;8.592;2022-08-05T07:53:00;6.82;;;6.47;;
17398;SDS011;8817;48.170;8.592;2022-08-05T07:55:28;6.60;;;6.30;;
17398;SDS011;8817;48.170;8.592;2022-08-05T07:57:55;6.93;;;6.40;;
17398;SDS011;8817;48.170;8.592;2022-08-05T08:00:22;6.72;;;6.32;;
17398;SDS011;8817;48.170;8.592;2022-08-05T08:02:50;6.80;;;6.50;;
17398;SDS011;8817;48.170;8.592;2022-08-05T08:05:17;6.35;;;6.05;;
17398;SDS011;8817;48.170;8.592;2022-08-05T08:07:44;6.20;;;5.90;;
17398;SDS011;8817;48.170;8.592;2022-08-05T08:10:13;7.10;;;6.60;;
17398;SDS011;8817;48.170;8.592;2022-08-05T08:12:40;6.70;;;6.40;;
17398;SDS011;8817;48.170;8.592;2022-08-05T08:15:07;7.22;;;6.75;;
17398;SDS011;8817;48.170;8.592;2022-08-05T08:17:36;7.78;;;7.18;;
17398;SDS011;8817;48.170;8.592;2022-08-05T08:20:03;6.57;;;6.28;;
17398;SDS011;8817;48.170;8.592;2022-08-05T08:22:30;7.07;;;6.70;;
17398;SDS011;8817;48.170;8.592;2022-08-05T08:24:58;7.50;;;6.88;;
17398;SDS011;8817;48.170;8.592;2022-08-05T08:27:27;7.05;;;6.65;;
17398;SDS011;8817;48.170;8.592;2022-08-05T08:29:54;7.15;;;6.68;;
17398;SDS011;8817;48.170;8.592;2022-08-05T08:32:21;7.10;;;6.70;;
17398;SDS011;8817;48.170;8.592;2022-08-05T08:34:48;7.30;;;6.90;;
17398;SDS011;8817;48.170;8.592;2022-08-05T08:37:16;7.78;;;7.07;;
17398;SDS011;8817;48.170;8.592;2022-08-05T08:39:43;7.50;;;7.10;;
17398;SDS011;8817;48.170;8.592;2022-08-05T08:42:10;7.40;;;6.90;;
17398;SDS011;8817;48.170;8.592;2022-08-05T08:44:39;7.45;;;7.05;;
17398;SDS011;8817;48.170;8.592;2022-08-05T08:47:08;7.68;;;7.28;;
17398;SDS011;8817;48.170;8.592;2022-08-05T08:49:37;7.40;;;6.90;;
17398;SDS011;8817;48.170;8.592;2022-08-05T08:52:10;7.13;;;6.82;;
17398;SDS011;8817;48.170;8.592;2022-08-05T08:54:39;7.43;;;6.78;;
17398;SDS011;8817;48.170;8.592;2022-08-05T08:57:08;7.70;;;7.10;;
17398;SDS011;8817;48.170;8.592;2022-08-05T08:59:36;6.55;;;6.25;;
17398;SDS011;8817;48.170;8.592;2022-08-05T09:02:05;6.85;;;6.38;;
17398;SDS011;8817;48.170;8.592;2022-08-05T09:04:33;6.80;;;6.40;;
17398;SDS011;8817;48.170;8.592;2022-08-05T09:07:02;7.70;;;6.40;;
17398;SDS011;8817;48.170;8.592;2022-08-05T09:09:30;8.75;;;6.60;;
17398;SDS011;8817;48.170;8.592;2022-08-05T09:11:57;6.63;;;6.32;;
17398;SDS011;8817;48.170;8.592;2022-08-05T09:14:25;7.80;;;6.55;;
17398;SDS011;8817;48.170;8.592;2022-08-05T09:16:52;6.95;;;6.45;;
17398;SDS011;8817;48.170;8.592;2022-08-05T09:19:21;6.68;;;6.38;;
17398;SDS011;8817;48.170;8.592;2022-08-05T09:21:48;6.93;;;6.43;;
17398;SDS011;8817;48.170;8.592;2022-08-05T09:24:15;8.00;;;6.57;;
17398;SDS011;8817;48.170;8.592;2022-08-05T09:26:45;6.75;;;6.45;;
17398;SDS011;8817;48.170;8.592;2022-08-05T09:29:13;6.50;;;6.20;;
17398;SDS011;8817;48.170;8.592;2022-08-05T09:31:40;6.60;;;6.30;;
17398;SDS011;8817;48.170;8.592;2022-08-05T09:34:09;7.07;;;6.45;;
17398;SDS011;8817;48.170;8.592;2022-08-05T09:36:40;6.55;;;6.25;;
17398;SDS011;8817;48.170;8.592;2022-08-05T09:39:09;6.70;;;6.40;;
17398;SDS011;8817;48.170;8.592;2022-08-05T09:44:34;5.35;;;4.95;;
17398;SDS011;8817;48.170;8.592;2022-08-05T09:47:09;5.90;;;4.97;;
17398;SDS011;8817;48.170;8.592;2022-08-05T09:49:40;5.47;;;5.00;;
17398;SDS011;8817;48.170;8.592;2022-08-05T09:52:18;5.05;;;4.75;;
17398;SDS011;8817;48.170;8.592;2022-08-05T09:54:58;5.82;;;5.00;;
17398;SDS011;8817;48.170;8.592;2022-08-05T09:57:30;5.30;;;5.00;;
17398;SDS011;8817;48.170;8.592;2022-08-05T10:00:00;5.30;;;5.10;;
17398;SDS011;8817;48.170;8.592;2022-08-05T10:02:34;5.55;;;5.25;;
17398;SDS011;8817;48.170;8.592;2022-08-05T10:05:04;5.55;;;5.25;;
17398;SDS011;8817;48.170;8.592;2022-08-05T10:07:43;5.22;;;5.00;;
17398;SDS011;8817;48.170;8.592;2022-08-05T10:10:14;5.30;;;5.10;;
17398;SDS011;8817;48.170;8.592;2022-08-05T10:12:42;5.32;;;5.07;;
17398;SDS011;8817;48.170;8.592;2022-08-05T10:15:17;5.40;;;5.10;;
17398;SDS011;8817;48.170;8.592;2022-08-05T10:18:02;5.28;;;5.07;;
17398;SDS011;8817;48.170;8.592;2022-08-05T10:20:33;5.30;;;5.10;;
17398;SDS011;8817;48.170;8.592;2022-08-05T10:23:04;5.32;;;5.10;;
17398;SDS011;8817;48.170;8.592;2022-08-05T10:25:31;5.38;;;5.10;;
17398;SDS011;8817;48.170;8.592;2022-08-05T10:27:58;6.20;;;5.80;;
17398;SDS011;8817;48.170;8.592;2022-08-05T10:30:26;5.55;;;5.25;;
17398;SDS011;8817;48.170;8.592;2022-08-05T10:32:54;5.50;;;5.20;;
17398;SDS011;8817;48.170;8.592;2022-08-05T10:35:22;6.00;;;5.60;;
17398;SDS011;8817;48.170;8.592;2022-08-05T10:37:49;6.03;;;5.55;;
17398;SDS011;8817;48.170;8.592;2022-08-05T10:40:20;6.10;;;5.78;;
17398;SDS011;8817;48.170;8.592;2022-08-05T10:42:55;5.78;;;5.40;;
17398;SDS011;8817;48.170;8.592;2022-08-05T10:45:25;5.70;;;5.40;;
17398;SDS011;8817;48.170;8.592;2022-08-05T10:47:54;6.15;;;5.70;;
17398;SDS011;8817;48.170;8.592;2022-08-05T10:50:21;5.70;;;5.40;;
17398;SDS011;8817;48.170;8.592;2022-08-05T10:52:49;5.80;;;5.50;;
17398;SDS011;8817;48.170;8.592;2022-08-05T10:55:22;5.80;;;5.50;;
17398;SDS011;8817;48.170;8.592;2022-08-05T11:00:33;5.93;;;5.63;;
17398;SDS011;8817;48.170;8.592;2022-08-05T11:03:12;6.50;;;6.10;;
17398;SDS011;8817;48.170;8.592;2022-08-05T11:05:40;6.20;;;5.90;;
17398;SDS011;8817;48.170;8.592;2022-08-05T11:08:07;6.45;;;6.05;;
17398;SDS011;8817;48.170;8.592;2022-08-05T11:10:37;6.15;;;5.75;;
17398;SDS011;8817;48.170;8.592;2022-08-05T11:13:07;6.10;;;5.80;;
17398;SDS011;8817;48.170;8.592;2022-08-05T11:15:35;6.32;;;5.82;;
17398;SDS011;8817;48.170;8.592;2022-08-05T11:18:05;7.88;;;5.70;;
17398;SDS011;8817;48.170;8.592;2022-08-05T11:20:38;6.35;;;5.78;;
17398;SDS011;8817;48.170;8.592;2022-08-05T11:26:10;6.70;;;6.20;;
17398;SDS011;8817;48.170;8.592;2022-08-05T11:28:47;6.70;;;6.20;;
17398;SDS011;8817;48.170;8.592;2022-08-05T11:34:00;7.40;;;6.20;;
17398;SDS011;8817;48.170;8.592;2022-08-05T11:36:42;7.38;;;6.97;;
17398;SDS011;8817;48.170;8.592;2022-08-05T11:39:12;4.80;;;4.50;;
17398;SDS011;8817;48.170;8.592;2022-08-05T11:41:48;3.78;;;3.58;;
17398;SDS011;8817;48.170;8.592;2022-08-05T11:44:16;6.05;;;5.20;;
17398;SDS011;8817;48.170;8.592;2022-08-05T11:46:47;6.85;;;4.90;;
17398;SDS011;8817;48.170;8.592;2022-08-05T11:49:16;5.60;;;5.10;;
17398;SDS011;8817;48.170;8.592;2022-08-05T11:51:45;4.70;;;4.40;;
17398;SDS011;8817;48.170;8.592;2022-08-05T11:54:19;4.53;;;4.32;;
17398;SDS011;8817;48.170;8.592;2022-08-05T11:56:50;4.68;;;4.47;;
17398;SDS011;8817;48.170;8.592;2022-08-05T11:59:19;4.97;;;4.50;;
17398;SDS011;8817;48.170;8.592;2022-08-05T12:01:53;4.90;;;4.70;;
17398;SDS011;8817;48.170;8.592;2022-08-05T12:04:22;5.25;;;5.05;;
17398;SDS011;8817;48.170;8.592;2022-08-05T12:06:50;4.95;;;4.75;;
17398;SDS011;8817;48.170;8.592;2022-08-05T12:09:20;5.32;;;5.03;;
17398;SDS011;8817;48.170;8.592;2022-08-05T12:11:52;4.82;;;4.63;;
17398;SDS011;8817;48.170;8.592;2022-08-05T12:14:19;4.57;;;4.40;;
17398;SDS011;8817;48.170;8.592;2022-08-05T12:16:48;5.07;;;4.82;;
17398;SDS011;8817;48.170;8.592;2022-08-05T12:19:15;5.43;;;5.22;;
17398;SDS011;8817;48.170;8.592;2022-08-05T12:21:44;5.22;;;4.93;;
17398;SDS011;8817;48.170;8.592;2022-08-05T12:24:13;5.00;;;4.70;;
17398;SDS011;8817;48.170;8.592;2022-08-05T12:26:43;5.30;;;4.80;;
17398;SDS011;8817;48.170;8.592;2022-08-05T12:29:13;5.07;;;4.88;;
17398;SDS011;8817;48.170;8.592;2022-08-05T12:31:45;4.63;;;4.53;;
17398;SDS011;8817;48.170;8.592;2022-08-05T12:34:13;5.97;;;5.57;;
17398;SDS011;8817;48.170;8.592;2022-08-05T12:36:41;4.82;;;4.72;;
17398;SDS011;8817;48.170;8.592;2022-08-05T12:39:09;4.93;;;4.72;;
17398;SDS011;8817;48.170;8.592;2022-08-05T12:41:37;5.38;;;5.00;;
17398;SDS011;8817;48.170;8.592;2022-08-05T12:44:06;4.68;;;4.47;;
17398;SDS011;8817;48.170;8.592;2022-08-05T12:46:36;4.45;;;4.35;;
17398;SDS011;8817;48.170;8.592;2022-08-05T12:49:05;5.30;;;5.10;;
17398;SDS011;8817;48.170;8.592;2022-08-05T12:51:43;5.00;;;4.80;;
17398;SDS011;8817;48.170;8.592;2022-08-05T12:54:16;4.70;;;4.50;;
17398;SDS011;8817;48.170;8.592;2022-08-05T12:56:46;4.43;;;4.22;;
17398;SDS011;8817;48.170;8.592;2022-08-05T12:59:15;4.40;;;4.25;;
17398;SDS011;8817;48.170;8.592;2022-08-05T13:01:52;5.82;;;5.28;;
17398;SDS011;8817;48.170;8.592;2022-08-05T13:04:20;5.60;;;5.30;;
17398;SDS011;8817;48.170;8.592;2022-08-05T13:06:48;4.90;;;4.70;;
17398;SDS011;8817;48.170;8.592;2022-08-05T13:09:15;5.28;;;5.00;;
17398;SDS011;8817;48.170;8.592;2022-08-05T13:11:42;7.05;;;5.43;;
17398;SDS011;8817;48.170;8.592;2022-08-05T13:14:16;4.80;;;4.60;;
17398;SDS011;8817;48.170;8.592;2022-08-05T13:16:47;5.10;;;4.90;;
17398;SDS011;8817;48.170;8.592;2022-08-05T13:19:15;5.68;;;5.28;;
17398;SDS011;8817;48.170;8.592;2022-08-05T13:21:46;5.47;;;5.22;;
17398;SDS011;8817;48.170;8.592;2022-08-05T13:24:13;6.70;;;6.20;;
17398;SDS011;8817;48.170;8.592;2022-08-05T13:26:42;6.20;;;5.60;;
17398;SDS011;8817;48.170;8.592;2022-08-05T13:29:09;5.70;;;5.40;;
17398;SDS011;8817;48.170;8.592;2022-08-05T13:31:36;5.50;;;5.10;;
17398;SDS011;8817;48.170;8.592;2022-08-05T13:34:05;5.05;;;4.85;;
17398;SDS011;8817;48.170;8.592;2022-08-05T13:36:32;4.80;;;4.60;;
17398;SDS011;8817;48.170;8.592;2022-08-05T13:39:00;4.82;;;4.63;;
17398;SDS011;8817;48.170;8.592;2022-08-05T13:41:27;5.10;;;4.90;;
17398;SDS011;8817;48.170;8.592;2022-08-05T13:43:55;4.93;;;4.72;;
17398;SDS011;8817;48.170;8.592;2022-08-05T13:46:22;5.20;;;5.00;;
17398;SDS011;8817;48.170;8.592;2022-08-05T13:48:49;4.90;;;4.57;;
17398;SDS011;8817;48.170;8.592;2022-08-05T13:51:24;4.60;;;4.50;;
17398;SDS011;8817;48.170;8.592;2022-08-05T13:53:53;5.03;;;4.88;;
17398;SDS011;8817;48.170;8.592;2022-08-05T13:56:20;5.55;;;5.25;;
17398;SDS011;8817;48.170;8.592;2022-08-05T13:58:47;6.30;;;5.80;;
17398;SDS011;8817;48.170;8.592;2022-08-05T14:01:14;5.63;;;5.13;;
17398;SDS011;8817;48.170;8.592;2022-08-05T14:03:41;5.38;;;5.07;;
17398;SDS011;8817;48.170;8.592;2022-08-05T14:06:08;4.90;;;4.70;;
17398;SDS011;8817;48.170;8.592;2022-08-05T14:08:35;5.15;;;4.95;;
17398;SDS011;8817;48.170;8.592;2022-08-05T14:11:02;5.00;;;4.80;;
17398;SDS011;8817;48.170;8.592;2022-08-05T14:13:29;5.03;;;4.72;;
17398;SDS011;8817;48.170;8.592;2022-08-05T14:15:56;4.95;;;4.65;;
17398;SDS011;8817;48.170;8.592;2022-08-05T14:18:23;5.40;;;5.00;;
17398;SDS011;8817;48.170;8.592;2022-08-05T14:20:50;5.10;;;4.75;;
17398;SDS011;8817;48.170;8.592;2022-08-05T14:23:17;4.78;;;4.50;;
17398;SDS011;8817;48.170;8.592;2022-08-05T14:25:45;5.18;;;4.80;;
17398;SDS011;8817;48.170;8.592;2022-08-05T14:28:12;4.90;;;4.70;;
17398;SDS011;8817;48.170;8.592;2022-08-05T14:30:39;4.70;;;4.50;;
17398;SDS011;8817;48.170;8.592;2022-08-05T14:33:06;4.60;;;4.40;;
17398;SDS011;8817;48.170;8.592;2022-08-05T14:35:34;5.00;;;4.80;;
17398;SDS011;8817;48.170;8.592;2022-08-05T14:38:01;5.70;;;5.38;;
17398;SDS011;8817;48.170;8.592;2022-08-05T14:40:28;4.88;;;4.57;;
17398;SDS011;8817;48.170;8.592;2022-08-05T14:42:57;4.28;;;4.18;;
17398;SDS011;8817;48.170;8.592;2022-08-05T14:45:23;4.50;;;4.30;;
17398;SDS011;8817;48.170;8.592;2022-08-05T14:47:50;5.40;;;5.10;;
17398;SDS011;8817;48.170;8.592;2022-08-05T14:50:20;4.68;;;4.47;;
17398;SDS011;8817;48.170;8.592;2022-08-05T14:52:47;4.80;;;4.60;;
17398;SDS011;8817;48.170;8.592;2022-08-05T14:55:14;5.20;;;4.90;;
17398;SDS011;8817;48.170;8.592;2022-08-05T14:57:41;5.10;;;4.80;;
17398;SDS011;8817;48.170;8.592;2022-08-05T15:00:10;4.80;;;4.60;;
17398;SDS011;8817;48.170;8.592;2022-08-05T15:02:37;4.57;;;4.38;;
17398;SDS011;8817;48.170;8.592;2022-08-05T15:05:05;4.50;;;4.38;;
17398;SDS011;8817;48.170;8.592;2022-08-05T15:07:32;5.00;;;4.55;;
17398;SDS011;8817;48.170;8.592;2022-08-05T15:10:00;4.68;;;4.47;;
17398;SDS011;8817;48.170;8.592;2022-08-05T15:12:27;5.10;;;4.63;;
17398;SDS011;8817;48.170;8.592;2022-08-05T15:14:54;4.90;;;4.60;;
17398;SDS011;8817;48.170;8.592;2022-08-05T15:17:24;5.05;;;4.80;;
17398;SDS011;8817;48.170;8.592;2022-08-05T15:19:51;4.78;;;4.57;;
17398;SDS011;8817;48.170;8.592;2022-08-05T15:22:18;4.90;;;4.70;;